createdAt,value
2022-11-26T00:00:18.336Z,7.50
2022-11-26T00:02:46.481Z,8.43
2022-11-26T00:05:14.894Z,8.23
2022-11-26T00:07:43.092Z,7.83
2022-11-26T00:10:18.973Z,7.40
2022-11-26T00:12:46.506Z,8.17
2022-11-26T00:15:20.112Z,7.63
2022-11-26T00:17:47.850Z,8.27
2022-11-26T00:20:15.670Z,8.20
2022-11-26T00:22:49.419Z,8.20
2022-11-26T00:25:19.744Z,8.80
2022-11-26T00:27:47.125Z,7.20
2022-11-26T00:30:15.452Z,8.40
2022-11-26T00:32:45.737Z,7.50
2022-11-26T00:35:13.213Z,9.70
2022-11-26T00:37:42.241Z,7.93
2022-11-26T00:40:17.626Z,7.97
2022-11-26T00:42:45.617Z,7.80
2022-11-26T00:45:23.535Z,7.30
2022-11-26T00:47:51.550Z,7.63
2022-11-26T00:50:22.621Z,7.53
2022-11-26T00:52:54.934Z,8.77
2022-11-26T00:55:22.170Z,8.10
2022-11-26T00:57:49.377Z,8.50
2022-11-26T01:00:19.535Z,7.90
2022-11-26T01:02:47.662Z,9.80
2022-11-26T01:05:15.766Z,7.80
2022-11-26T01:07:43.726Z,6.70
2022-11-26T01:10:16.900Z,6.70
2022-11-26T01:12:44.413Z,7.07
2022-11-26T01:15:12.309Z,7.13
2022-11-26T01:17:40.940Z,6.60
2022-11-26T01:20:22.800Z,6.70
2022-11-26T01:22:53.533Z,6.17
2022-11-26T01:25:21.058Z,6.20
2022-11-26T01:27:48.337Z,7.20
2022-11-26T01:30:23.372Z,6.70
2022-11-26T01:32:50.916Z,8.20
2022-11-26T01:35:20.298Z,7.17
2022-11-26T01:37:48.070Z,7.40
2022-11-26T01:40:29.654Z,7.43
2022-11-26T01:43:05.528Z,7.10
2022-11-26T01:45:33.286Z,6.50
2022-11-26T01:48:00.796Z,6.93
2022-11-26T01:50:34.418Z,7.20
2022-11-26T01:53:04.135Z,8.33
2022-11-26T01:55:45.752Z,8.00
2022-11-26T01:58:15.239Z,7.70
2022-11-26T02:00:44.232Z,7.20
2022-11-26T02:03:11.721Z,7.30
2022-11-26T02:05:42.735Z,6.73
2022-11-26T02:08:11.855Z,7.37
2022-11-26T02:10:41.385Z,6.87
2022-11-26T02:13:08.761Z,7.07
2022-11-26T02:15:42.486Z,7.17
2022-11-26T02:18:11.351Z,8.10
2022-11-26T02:20:54.060Z,7.20
2022-11-26T02:23:21.628Z,6.50
2022-11-26T02:26:04.924Z,8.53
2022-11-26T02:28:32.400Z,7.20
2022-11-26T02:31:03.555Z,6.90
2022-11-26T02:33:34.451Z,6.63
2022-11-26T02:36:05.899Z,7.70
2022-11-26T02:38:34.176Z,6.77
2022-11-26T02:41:02.401Z,8.00
2022-11-26T02:43:30.167Z,6.43
2022-11-26T02:46:00.862Z,6.90
2022-11-26T02:48:31.047Z,6.80
2022-11-26T02:51:00.556Z,7.40
2022-11-26T02:53:29.672Z,7.17
2022-11-26T02:56:05.974Z,6.83
2022-11-26T02:58:33.938Z,6.90
2022-11-26T03:01:04.638Z,8.53
2022-11-26T03:03:36.872Z,7.13
2022-11-26T03:06:11.257Z,7.00
2022-11-26T03:08:39.674Z,7.50
2022-11-26T03:11:07.317Z,7.33
2022-11-26T03:13:34.744Z,7.37
2022-11-26T03:16:02.534Z,6.37
2022-11-26T03:18:30.204Z,8.17
2022-11-26T03:20:57.468Z,7.47
2022-11-26T03:23:26.698Z,6.97
2022-11-26T03:25:54.004Z,7.77
2022-11-26T03:28:21.249Z,7.10
2022-11-26T03:30:50.631Z,9.17
2022-11-26T03:33:18.986Z,7.20
2022-11-26T03:35:49.418Z,10.50
2022-11-26T03:38:18.516Z,8.23
2022-11-26T03:40:46.129Z,8.10
2022-11-26T03:43:13.470Z,8.23
2022-11-26T03:45:40.641Z,7.30
2022-11-26T03:48:07.823Z,8.03
2022-11-26T03:50:35.755Z,7.97
2022-11-26T03:53:02.899Z,7.23
2022-11-26T03:55:30.110Z,7.47
2022-11-26T03:57:57.273Z,9.20
2022-11-26T04:00:24.531Z,9.43
2022-11-26T04:02:51.903Z,7.70
2022-11-26T04:05:19.127Z,7.53
2022-11-26T04:07:46.293Z,8.30
2022-11-26T04:10:13.479Z,7.23
2022-11-26T04:12:40.639Z,7.33
2022-11-26T04:15:08.137Z,8.33
2022-11-26T04:17:35.295Z,8.60
2022-11-26T04:20:02.536Z,7.83
2022-11-26T04:22:29.716Z,7.33
2022-11-26T04:24:56.901Z,7.53
2022-11-26T04:27:24.262Z,7.87
2022-11-26T04:29:51.434Z,7.20
2022-11-26T04:32:18.593Z,7.33
2022-11-26T04:34:45.747Z,7.20
2022-11-26T04:37:12.960Z,7.53
2022-11-26T04:39:40.144Z,7.90
2022-11-26T04:42:07.349Z,7.63
2022-11-26T04:44:34.547Z,7.53
2022-11-26T04:47:01.753Z,8.47
2022-11-26T04:49:28.939Z,7.23
2022-11-26T04:51:56.261Z,7.97
2022-11-26T04:54:23.398Z,7.27
2022-11-26T04:56:50.567Z,6.50
2022-11-26T04:59:18.726Z,7.70
2022-11-26T05:01:46.005Z,7.37
2022-11-26T05:04:13.268Z,9.07
2022-11-26T05:06:40.443Z,7.53
2022-11-26T05:09:07.594Z,7.53
2022-11-26T05:11:34.745Z,7.57
2022-11-26T05:14:01.967Z,6.40
2022-11-26T05:16:29.314Z,7.23
2022-11-26T05:18:57.759Z,7.47
2022-11-26T05:21:24.933Z,8.13
2022-11-26T05:23:52.830Z,7.07
2022-11-26T05:26:21.216Z,7.10
2022-11-26T05:28:48.394Z,7.90
2022-11-26T05:31:16.391Z,8.03
2022-11-26T05:33:44.882Z,8.00
2022-11-26T05:36:12.097Z,8.50
2022-11-26T05:38:39.288Z,8.53
2022-11-26T05:41:06.692Z,8.13
2022-11-26T05:43:33.966Z,8.10
2022-11-26T05:46:05.898Z,7.70
2022-11-26T05:48:33.240Z,8.87
2022-11-26T05:51:01.103Z,8.13
2022-11-26T05:53:29.062Z,7.77
2022-11-26T05:55:56.228Z,7.77
2022-11-26T05:58:23.394Z,8.57
2022-11-26T06:00:50.612Z,9.00
2022-11-26T06:03:20.406Z,8.10
2022-11-26T06:05:48.182Z,8.60
2022-11-26T06:08:15.408Z,8.30
2022-11-26T06:10:45.629Z,8.70
2022-11-26T06:13:12.800Z,9.30
2022-11-26T06:15:40.304Z,8.57
2022-11-26T06:18:07.509Z,8.53
2022-11-26T06:20:35.411Z,9.23
2022-11-26T06:23:02.677Z,8.80
2022-11-26T06:25:29.857Z,8.30
2022-11-26T06:27:57.247Z,9.50
2022-11-26T06:30:24.496Z,8.43
2022-11-26T06:32:51.714Z,7.90
2022-11-26T06:35:20.001Z,8.53
2022-11-26T06:37:47.182Z,8.23
2022-11-26T06:40:19.184Z,10.30
2022-11-26T06:42:48.909Z,9.10
2022-11-26T06:45:16.380Z,8.93
2022-11-26T06:47:43.581Z,10.17
2022-11-26T06:50:11.120Z,9.30
2022-11-26T06:52:38.403Z,9.00
2022-11-26T06:55:05.789Z,9.90
2022-11-26T06:57:33.975Z,10.50
2022-11-26T07:00:01.970Z,9.63
2022-11-26T07:02:30.644Z,10.40
2022-11-26T07:04:57.901Z,10.47
2022-11-26T07:07:28.988Z,9.90
2022-11-26T07:09:56.261Z,10.17
2022-11-26T07:12:23.434Z,10.33
2022-11-26T07:14:52.208Z,10.30
2022-11-26T07:17:19.828Z,10.90
2022-11-26T07:19:47.013Z,10.77
2022-11-26T07:22:14.168Z,10.57
2022-11-26T07:24:41.592Z,10.50
2022-11-26T07:27:10.645Z,10.53
2022-11-26T07:29:39.161Z,10.40
2022-11-26T07:32:06.424Z,10.70
2022-11-26T07:34:33.597Z,10.37
2022-11-26T07:37:01.593Z,13.30
2022-11-26T07:39:28.852Z,9.83
2022-11-26T07:41:56.047Z,11.77
2022-11-26T07:44:26.302Z,11.70
2022-11-26T07:46:53.684Z,10.60
2022-11-26T07:49:21.925Z,12.40
2022-11-26T07:51:49.851Z,11.83
2022-11-26T07:54:16.991Z,12.10
2022-11-26T07:56:44.214Z,9.83
2022-11-26T07:59:12.223Z,10.40
2022-11-26T08:01:39.674Z,11.83
2022-11-26T08:04:08.465Z,11.30
2022-11-26T08:06:35.713Z,11.57
2022-11-26T08:09:04.145Z,10.57
2022-11-26T08:11:33.385Z,10.10
2022-11-26T08:14:02.443Z,10.10
2022-11-26T08:16:30.055Z,11.00
2022-11-26T08:18:58.772Z,11.23
2022-11-26T08:21:28.529Z,10.20
2022-11-26T08:23:57.070Z,10.50
2022-11-26T08:26:34.748Z,12.10
2022-11-26T08:29:04.978Z,10.67
2022-11-26T08:31:32.558Z,11.50
2022-11-26T08:34:00.374Z,10.97
2022-11-26T08:36:28.487Z,13.40
2022-11-26T08:38:55.722Z,10.97
2022-11-26T08:41:23.194Z,11.00
2022-11-26T08:44:07.358Z,10.13
2022-11-26T08:46:39.382Z,10.20
2022-11-26T08:49:07.827Z,11.37
2022-11-26T08:51:36.052Z,10.07
2022-11-26T08:54:03.251Z,11.70
2022-11-26T08:56:30.449Z,10.40
2022-11-26T08:58:57.996Z,10.63
2022-11-26T09:01:26.885Z,11.03
2022-11-26T09:03:56.925Z,11.03
2022-11-26T09:06:24.715Z,10.93
2022-11-26T09:09:11.073Z,11.03
2022-11-26T09:11:42.039Z,10.13
2022-11-26T09:14:10.347Z,10.50
2022-11-26T09:16:37.880Z,10.80
2022-11-26T09:19:06.280Z,9.57
2022-11-26T09:21:35.181Z,10.83
2022-11-26T09:24:02.691Z,9.53
2022-11-26T09:26:31.365Z,8.80
2022-11-26T09:28:58.918Z,9.13
2022-11-26T09:31:27.869Z,9.60
2022-11-26T09:33:59.430Z,10.50
2022-11-26T09:36:27.111Z,9.83
2022-11-26T09:38:55.467Z,9.63
2022-11-26T09:41:34.557Z,9.50
2022-11-26T09:44:22.064Z,10.03
2022-11-26T09:47:11.554Z,10.47
2022-11-26T09:49:52.040Z,10.90
2022-11-26T09:52:20.185Z,9.57
2022-11-26T09:54:48.860Z,8.90
2022-11-26T09:57:22.374Z,10.77
2022-11-26T09:59:50.439Z,10.10
2022-11-26T10:02:17.697Z,9.20
2022-11-26T10:04:45.044Z,9.53
2022-11-26T10:07:26.693Z,9.77
2022-11-26T10:10:04.728Z,9.53
2022-11-26T10:13:17.500Z,11.20
2022-11-26T10:15:44.518Z,9.33
2022-11-26T10:18:23.101Z,10.07
2022-11-26T10:20:55.107Z,9.80
2022-11-26T10:23:26.063Z,10.67
2022-11-26T10:26:02.206Z,10.10
2022-11-26T10:28:50.016Z,10.73
2022-11-26T10:31:20.399Z,9.80
2022-11-26T10:33:50.619Z,10.27
2022-11-26T10:36:23.049Z,10.40
2022-11-26T10:38:50.315Z,10.17
2022-11-26T10:41:17.636Z,10.43
2022-11-26T10:43:44.855Z,11.17
2022-11-26T10:46:30.156Z,11.40
2022-11-26T10:49:16.182Z,11.33
2022-11-26T10:51:46.331Z,12.07
2022-11-26T10:54:23.960Z,11.50
2022-11-26T10:56:55.224Z,11.47
2022-11-26T10:59:27.540Z,10.53
2022-11-26T11:01:57.496Z,10.97
2022-11-26T11:04:38.453Z,11.20
2022-11-26T11:07:11.627Z,11.70
2022-11-26T11:09:40.408Z,11.20
2022-11-26T11:12:19.435Z,10.93
2022-11-26T11:14:47.921Z,10.40
2022-11-26T11:17:35.473Z,10.73
2022-11-26T11:20:23.365Z,12.10
2022-11-26T11:22:57.509Z,11.57
2022-11-26T11:25:30.341Z,9.90
2022-11-26T11:28:12.402Z,11.20
2022-11-26T11:30:40.982Z,10.67
2022-11-26T11:33:22.103Z,10.10
2022-11-26T11:36:01.767Z,11.40
2022-11-26T11:38:31.051Z,11.50
2022-11-26T11:40:58.609Z,10.57
2022-11-26T11:43:26.817Z,10.70
2022-11-26T11:46:04.865Z,11.53
2022-11-26T11:48:43.500Z,10.50
2022-11-26T11:51:22.846Z,10.10
2022-11-26T11:54:08.458Z,9.30
2022-11-26T11:56:42.131Z,9.50
2022-11-26T11:59:14.801Z,11.20
2022-11-26T12:01:58.701Z,9.13
2022-11-26T12:04:55.292Z,9.17
2022-11-26T12:07:30.833Z,9.67
2022-11-26T12:10:16.907Z,8.90
2022-11-26T12:12:47.527Z,11.63
2022-11-26T12:15:27.428Z,11.13
2022-11-26T12:17:55.186Z,9.10
2022-11-26T12:20:32.050Z,8.47
2022-11-26T12:23:24.468Z,8.77
2022-11-26T12:26:01.334Z,8.50
2022-11-26T12:28:30.342Z,10.10
2022-11-26T12:30:57.536Z,9.93
2022-11-26T12:33:31.287Z,8.73
2022-11-26T12:36:00.187Z,7.97
2022-11-26T12:38:29.316Z,9.17
2022-11-26T12:41:05.081Z,8.50
2022-11-26T12:43:51.054Z,8.43
2022-11-26T12:46:28.700Z,9.77
2022-11-26T12:48:58.868Z,8.97
2022-11-26T12:51:40.030Z,9.90
2022-11-26T12:54:16.490Z,8.07
2022-11-26T12:56:52.823Z,8.70
2022-11-26T12:59:27.195Z,8.40
2022-11-26T13:01:56.591Z,8.03
2022-11-26T13:04:43.555Z,7.97
2022-11-26T13:07:29.906Z,7.90
2022-11-26T13:10:04.445Z,8.67
2022-11-26T13:12:37.727Z,9.10
2022-11-26T13:15:21.754Z,9.40
2022-11-26T13:17:49.921Z,10.43
2022-11-26T13:20:20.218Z,10.00
2022-11-26T13:22:59.609Z,11.77
2022-11-26T13:25:35.131Z,12.27
2022-11-26T13:28:15.115Z,10.20
2022-11-26T13:30:48.359Z,10.10
2022-11-26T13:33:34.432Z,10.77
2022-11-26T13:36:24.137Z,11.17
2022-11-26T13:39:05.649Z,9.60
2022-11-26T13:41:56.487Z,9.23
2022-11-26T13:44:42.658Z,9.30
2022-11-26T13:47:30.085Z,9.60
2022-11-26T13:50:03.211Z,8.93
2022-11-26T13:52:42.277Z,9.17
2022-11-26T13:55:24.851Z,9.30
2022-11-26T13:57:54.856Z,8.53
2022-11-26T14:00:32.726Z,9.03
2022-11-26T14:03:00.530Z,9.57
2022-11-26T14:05:46.704Z,10.27
2022-11-26T14:08:32.852Z,9.60
2022-11-26T14:11:00.059Z,8.57
2022-11-26T14:13:27.822Z,7.93
2022-11-26T14:15:59.531Z,7.70
2022-11-26T14:18:52.704Z,7.67
2022-11-26T14:21:21.416Z,8.40
2022-11-26T14:23:50.123Z,10.57
2022-11-26T14:26:19.518Z,8.40
2022-11-26T14:28:48.503Z,7.37
2022-11-26T14:31:25.600Z,8.90
2022-11-26T14:33:55.254Z,9.67
2022-11-26T14:36:23.378Z,8.70
2022-11-26T14:39:05.690Z,8.80
2022-11-26T14:41:42.428Z,7.70
2022-11-26T14:44:12.389Z,8.70
2022-11-26T14:46:40.214Z,8.20
2022-11-26T14:49:27.661Z,8.63
2022-11-26T14:51:55.101Z,8.90
2022-11-26T14:54:43.050Z,8.70
2022-11-26T14:57:16.944Z,10.63
2022-11-26T14:59:57.208Z,9.07
2022-11-26T15:02:25.037Z,7.17
2022-11-26T15:05:00.610Z,8.50
2022-11-26T15:07:29.036Z,8.40
2022-11-26T15:10:03.740Z,8.80
2022-11-26T15:12:31.138Z,9.40
2022-11-26T15:14:59.358Z,10.67
2022-11-26T15:17:28.760Z,8.00
2022-11-26T15:19:57.207Z,8.60
2022-11-26T15:22:44.169Z,8.13
2022-11-26T15:25:31.734Z,7.87
2022-11-26T15:28:07.034Z,8.97
2022-11-26T15:30:36.282Z,8.63
2022-11-26T15:33:11.566Z,8.07
2022-11-26T15:35:42.712Z,8.87
2022-11-26T15:38:17.057Z,8.93
2022-11-26T15:40:55.749Z,9.13
2022-11-26T15:43:24.831Z,8.60
2022-11-26T15:45:53.735Z,7.30
2022-11-26T15:48:27.991Z,7.93
2022-11-26T15:51:04.687Z,8.63
2022-11-26T15:53:35.208Z,8.20
2022-11-26T15:56:03.135Z,10.30
2022-11-26T15:58:41.382Z,9.00
2022-11-26T16:01:16.643Z,9.90
2022-11-26T16:03:45.688Z,8.97
2022-11-26T16:06:25.855Z,8.30
2022-11-26T16:09:18.251Z,9.43
2022-11-26T16:11:59.335Z,8.40
2022-11-26T16:14:27.519Z,9.73
2022-11-26T16:16:55.084Z,8.63
2022-11-26T16:19:22.615Z,9.47
2022-11-26T16:21:50.702Z,8.60
2022-11-26T16:24:27.038Z,9.53
2022-11-26T16:26:57.423Z,9.33
2022-11-26T16:29:25.274Z,9.00
2022-11-26T16:31:52.579Z,9.50
2022-11-26T16:34:19.908Z,7.83
2022-11-26T16:36:47.216Z,8.30
2022-11-26T16:39:15.008Z,9.03
2022-11-26T16:41:42.237Z,10.37
2022-11-26T16:44:09.571Z,8.33
2022-11-26T16:46:38.110Z,9.73
2022-11-26T16:49:05.336Z,10.30
2022-11-26T16:51:33.796Z,8.77
2022-11-26T16:54:01.000Z,9.90
2022-11-26T16:56:33.150Z,8.53
2022-11-26T16:59:02.438Z,8.73
2022-11-26T17:01:29.731Z,8.10
2022-11-26T17:03:56.991Z,8.70
2022-11-26T17:06:32.570Z,8.77
2022-11-26T17:08:59.823Z,8.30
2022-11-26T17:11:27.185Z,9.20
2022-11-26T17:13:56.883Z,10.47
2022-11-26T17:16:25.944Z,8.10
2022-11-26T17:18:53.140Z,8.70
2022-11-26T17:21:20.373Z,9.10
2022-11-26T17:23:47.538Z,9.30
2022-11-26T17:26:17.572Z,9.07
2022-11-26T17:28:44.967Z,9.83
2022-11-26T17:31:13.306Z,9.37
2022-11-26T17:33:40.554Z,9.33
2022-11-26T17:36:15.809Z,9.43
2022-11-26T17:38:43.067Z,9.73
2022-11-26T17:41:11.196Z,8.80
2022-11-26T17:43:38.585Z,11.20
2022-11-26T17:46:05.963Z,9.50
2022-11-26T17:48:33.147Z,8.90
2022-11-26T17:51:02.667Z,8.93
2022-11-26T17:53:32.897Z,9.30
2022-11-26T17:56:00.072Z,9.27
2022-11-26T17:58:27.297Z,9.60
2022-11-26T18:00:54.454Z,18.80
2022-11-26T18:03:21.624Z,36.83
2022-11-26T18:05:48.805Z,12.10
2022-11-26T18:08:15.923Z,12.10
2022-11-26T18:10:43.069Z,10.20
2022-11-26T18:13:10.243Z,10.33
2022-11-26T18:15:37.390Z,11.53
2022-11-26T18:18:04.644Z,8.13
2022-11-26T18:20:31.870Z,9.00
2022-11-26T18:22:59.902Z,9.10
2022-11-26T18:25:27.605Z,9.03
2022-11-26T18:27:54.787Z,10.07
2022-11-26T18:30:27.056Z,10.43
2022-11-26T18:32:54.287Z,9.10
2022-11-26T18:35:22.736Z,9.07
2022-11-26T18:37:51.077Z,10.40
2022-11-26T18:40:18.618Z,10.23
2022-11-26T18:42:46.020Z,17.20
2022-11-26T18:45:16.214Z,10.40
2022-11-26T18:47:44.072Z,10.80
2022-11-26T18:50:13.838Z,11.00
2022-11-26T18:52:41.110Z,11.43
2022-11-26T18:55:09.495Z,12.93
2022-11-26T18:57:37.047Z,12.90
2022-11-26T19:00:04.925Z,12.37
2022-11-26T19:02:32.618Z,12.87
2022-11-26T19:05:02.146Z,15.33
2022-11-26T19:07:29.670Z,14.27
2022-11-26T19:09:56.849Z,13.90
2022-11-26T19:12:24.008Z,11.50
2022-11-26T19:14:51.384Z,13.80
2022-11-26T19:17:18.631Z,13.77
2022-11-26T19:19:45.860Z,13.50
2022-11-26T19:22:12.988Z,12.80
2022-11-26T19:24:40.196Z,12.70
2022-11-26T19:27:08.601Z,11.63
2022-11-26T19:29:35.837Z,12.23
2022-11-26T19:32:04.074Z,12.57
2022-11-26T19:34:31.222Z,12.73
2022-11-26T19:36:58.476Z,12.47
2022-11-26T19:39:25.648Z,13.03
2022-11-26T19:41:52.888Z,11.90
2022-11-26T19:44:20.194Z,14.00
2022-11-26T19:46:48.885Z,11.77
2022-11-26T19:49:16.794Z,13.57
2022-11-26T19:51:44.126Z,15.37
2022-11-26T19:54:11.356Z,13.83
2022-11-26T19:56:38.752Z,14.20
2022-11-26T19:59:05.988Z,14.73
2022-11-26T20:01:34.163Z,15.00
2022-11-26T20:04:03.716Z,13.80
2022-11-26T20:06:31.763Z,13.83
2022-11-26T20:09:00.325Z,13.63
2022-11-26T20:11:28.663Z,37.20
2022-11-26T20:13:56.541Z,24.47
2022-11-26T20:16:28.537Z,15.27
2022-11-26T20:18:55.870Z,12.60
2022-11-26T20:21:25.431Z,12.23
2022-11-26T20:23:53.413Z,14.07
2022-11-26T20:26:25.258Z,12.83
2022-11-26T20:28:54.390Z,16.00
2022-11-26T20:31:23.862Z,16.20
2022-11-26T20:33:52.463Z,15.27
2022-11-26T20:36:23.309Z,14.57
2022-11-26T20:38:54.636Z,14.57
2022-11-26T20:41:22.512Z,14.50
2022-11-26T20:43:54.966Z,19.17
2022-11-26T20:46:25.184Z,16.27
2022-11-26T20:48:52.826Z,15.70
2022-11-26T20:51:21.670Z,17.30
2022-11-26T20:53:50.397Z,13.93
2022-11-26T20:56:18.693Z,12.50
2022-11-26T20:58:46.225Z,12.87
2022-11-26T21:01:17.533Z,10.13
2022-11-26T21:03:44.971Z,12.17
2022-11-26T21:06:15.809Z,11.50
2022-11-26T21:08:43.380Z,12.47
2022-11-26T21:11:11.051Z,11.70
2022-11-26T21:13:38.632Z,11.43
2022-11-26T21:16:06.681Z,11.73
2022-11-26T21:18:34.096Z,12.23
2022-11-26T21:21:01.305Z,10.63
2022-11-26T21:23:29.889Z,10.80
2022-11-26T21:25:57.465Z,11.63
2022-11-26T21:28:25.115Z,10.40
2022-11-26T21:30:52.398Z,11.40
2022-11-26T21:33:20.925Z,13.80
2022-11-26T21:35:48.441Z,12.43
2022-11-26T21:38:15.591Z,14.40
2022-11-26T21:40:42.838Z,12.03
2022-11-26T21:43:09.973Z,12.50
2022-11-26T21:45:37.371Z,11.83
2022-11-26T21:48:04.892Z,12.30
2022-11-26T21:50:32.075Z,13.80
2022-11-26T21:53:00.301Z,11.27
2022-11-26T21:55:27.459Z,10.67
2022-11-26T21:57:55.027Z,10.63
2022-11-26T22:00:22.229Z,9.63
2022-11-26T22:02:49.449Z,9.57
2022-11-26T22:05:16.599Z,8.27
2022-11-26T22:07:43.862Z,9.13
2022-11-26T22:10:11.358Z,9.00
2022-11-26T22:12:38.512Z,10.27
2022-11-26T22:15:05.876Z,9.87
2022-11-26T22:17:32.983Z,10.50
2022-11-26T22:20:00.145Z,9.37
2022-11-26T22:22:27.359Z,9.10
2022-11-26T22:24:54.500Z,10.00
2022-11-26T22:27:21.668Z,11.50
2022-11-26T22:29:49.249Z,10.77
2022-11-26T22:32:16.401Z,9.60
2022-11-26T22:34:43.531Z,10.00
2022-11-26T22:37:10.669Z,11.03
2022-11-26T22:39:38.158Z,10.40
2022-11-26T22:42:05.655Z,11.90
2022-11-26T22:44:33.894Z,11.50
2022-11-26T22:47:01.044Z,9.27
2022-11-26T22:49:28.233Z,9.93
2022-11-26T22:51:55.590Z,11.67
2022-11-26T22:54:23.363Z,9.80
2022-11-26T22:56:50.502Z,10.10
2022-11-26T22:59:17.729Z,13.73
2022-11-26T23:01:45.006Z,12.97
2022-11-26T23:04:12.883Z,12.00
2022-11-26T23:06:40.570Z,12.87
2022-11-26T23:09:09.802Z,12.87
2022-11-26T23:11:38.352Z,10.13
2022-11-26T23:14:07.445Z,9.50
2022-11-26T23:16:35.515Z,9.87
2022-11-26T23:19:03.204Z,9.20
2022-11-26T23:21:31.781Z,9.87
2022-11-26T23:23:59.432Z,9.10
2022-11-26T23:26:28.675Z,10.20
2022-11-26T23:28:56.495Z,10.50
2022-11-26T23:31:25.678Z,17.90
2022-11-26T23:33:53.416Z,15.70
2022-11-26T23:36:20.866Z,16.90
2022-11-26T23:38:48.566Z,13.00
2022-11-26T23:41:16.280Z,12.10
2022-11-26T23:43:44.123Z,10.90
2022-11-26T23:46:14.164Z,10.77
2022-11-26T23:48:42.096Z,11.00
2022-11-26T23:51:10.610Z,11.37
2022-11-26T23:53:38.711Z,9.60
2022-11-26T23:56:07.194Z,12.73
2022-11-26T23:58:34.644Z,10.83
